createdAt,value
2018-09-27T00:02:16.420Z,3.43
2018-09-27T00:04:45.396Z,3.70
2018-09-27T00:07:14.185Z,3.80
2018-09-27T00:09:42.958Z,5.87
2018-09-27T00:12:11.927Z,3.37
2018-09-27T00:14:40.723Z,3.70
2018-09-27T00:17:09.936Z,3.67
2018-09-27T00:19:38.779Z,2.80
2018-09-27T00:22:07.869Z,3.03
2018-09-27T00:24:36.679Z,2.73
2018-09-27T00:27:05.548Z,3.53
2018-09-27T00:29:34.329Z,3.67
2018-09-27T00:32:03.349Z,3.77
2018-09-27T00:34:32.220Z,3.37
2018-09-27T00:37:01.107Z,3.27
2018-09-27T00:39:29.936Z,3.17
2018-09-27T00:41:59.431Z,3.23
2018-09-27T00:44:28.378Z,2.67
2018-09-27T00:46:57.202Z,3.10
2018-09-27T00:49:26.335Z,2.67
2018-09-27T00:51:55.113Z,3.53
2018-09-27T00:54:24.184Z,2.93
2018-09-27T00:56:52.990Z,3.40
2018-09-27T00:59:21.827Z,3.20
2018-09-27T01:01:50.777Z,2.83
2018-09-27T01:04:19.591Z,3.43
2018-09-27T01:06:48.539Z,3.47
2018-09-27T01:09:17.586Z,3.07
2018-09-27T01:11:47.163Z,3.20
2018-09-27T01:14:16.176Z,3.30
2018-09-27T01:16:45.129Z,3.03
2018-09-27T01:19:14.070Z,3.20
2018-09-27T01:21:42.826Z,3.00
2018-09-27T01:24:11.610Z,3.30
2018-09-27T01:26:40.385Z,2.60
2018-09-27T01:29:09.787Z,3.07
2018-09-27T01:31:38.745Z,2.77
2018-09-27T01:34:07.470Z,3.10
2018-09-27T01:36:36.422Z,3.43
2018-09-27T01:39:06.928Z,2.87
2018-09-27T01:41:35.758Z,2.70
2018-09-27T01:44:04.907Z,2.97
2018-09-27T01:46:33.693Z,3.03
2018-09-27T01:49:02.416Z,2.93
2018-09-27T01:51:31.183Z,3.07
2018-09-27T01:54:00.047Z,2.67
2018-09-27T01:56:28.966Z,3.20
2018-09-27T01:58:57.746Z,2.63
2018-09-27T02:01:26.476Z,2.93
2018-09-27T02:03:55.187Z,2.90
2018-09-27T02:06:24.148Z,3.17
2018-09-27T02:08:52.890Z,3.30
2018-09-27T02:11:21.642Z,3.10
2018-09-27T02:13:50.418Z,3.20
2018-09-27T02:16:19.366Z,3.30
2018-09-27T02:18:48.152Z,3.27
2018-09-27T02:21:16.912Z,2.90
2018-09-27T02:23:45.749Z,3.13
2018-09-27T02:26:14.690Z,3.53
2018-09-27T02:28:43.540Z,3.37
2018-09-27T02:31:12.322Z,3.20
2018-09-27T02:33:41.320Z,3.40
2018-09-27T02:36:10.155Z,3.40
2018-09-27T02:38:38.897Z,3.20
2018-09-27T02:41:07.766Z,3.90
2018-09-27T02:43:36.495Z,3.07
2018-09-27T02:46:05.283Z,3.57
2018-09-27T02:48:34.052Z,3.40
2018-09-27T02:51:02.858Z,2.90
2018-09-27T02:53:31.645Z,2.80
2018-09-27T02:56:00.388Z,3.20
2018-09-27T02:58:29.089Z,3.37
2018-09-27T03:00:57.825Z,3.13
2018-09-27T03:03:26.610Z,3.57
2018-09-27T03:05:55.343Z,3.80
2018-09-27T03:08:24.047Z,3.43
2018-09-27T03:10:53.171Z,3.73
2018-09-27T03:13:22.090Z,3.30
2018-09-27T03:15:51.249Z,3.50
2018-09-27T03:18:20.390Z,3.37
2018-09-27T03:20:49.176Z,3.50
2018-09-27T03:23:17.987Z,3.40
2018-09-27T03:25:46.909Z,3.50
2018-09-27T03:28:15.748Z,3.20
2018-09-27T03:30:45.323Z,3.27
2018-09-27T03:33:14.158Z,3.67
2018-09-27T03:35:42.889Z,3.30
2018-09-27T03:38:11.629Z,3.53
2018-09-27T03:40:40.463Z,3.83
2018-09-27T03:43:09.168Z,3.87
2018-09-27T03:45:38.023Z,4.13
2018-09-27T03:48:06.819Z,4.07
2018-09-27T03:50:35.579Z,4.33
2018-09-27T03:53:04.352Z,3.97
2018-09-27T03:55:33.492Z,4.00
2018-09-27T03:58:02.263Z,4.47
2018-09-27T04:00:31.028Z,4.00
2018-09-27T04:02:59.838Z,4.00
2018-09-27T04:05:28.593Z,3.90
2018-09-27T04:07:57.499Z,4.00
2018-09-27T04:10:26.339Z,4.37
2018-09-27T04:12:55.101Z,4.00
2018-09-27T04:15:24.089Z,3.97
2018-09-27T04:17:52.909Z,3.90
2018-09-27T04:20:21.829Z,3.80
2018-09-27T04:22:50.612Z,3.70
2018-09-27T04:25:19.350Z,4.17
2018-09-27T04:27:48.192Z,3.40
2018-09-27T04:30:16.914Z,3.57
2018-09-27T04:32:45.698Z,4.40
2018-09-27T04:35:14.466Z,3.50
2018-09-27T04:37:43.265Z,3.97
2018-09-27T04:40:12.042Z,3.70
2018-09-27T04:42:40.820Z,3.33
2018-09-27T04:45:09.669Z,3.77
2018-09-27T04:47:38.434Z,3.53
2018-09-27T04:50:07.258Z,3.30
2018-09-27T04:52:36.025Z,3.47
2018-09-27T04:55:04.889Z,4.27
2018-09-27T04:57:33.632Z,3.40
2018-09-27T05:00:02.556Z,3.57
2018-09-27T05:02:31.266Z,4.03
2018-09-27T05:05:00.084Z,4.30
2018-09-27T05:07:28.911Z,3.93
2018-09-27T05:09:57.827Z,3.90
2018-09-27T05:12:26.601Z,3.47
2018-09-27T05:14:55.644Z,4.90
2018-09-27T05:17:24.352Z,4.30
2018-09-27T05:19:53.187Z,3.90
2018-09-27T05:22:21.884Z,4.50
2018-09-27T05:24:50.683Z,3.80
2018-09-27T05:27:19.723Z,3.80
2018-09-27T05:29:48.440Z,4.20
2018-09-27T05:32:17.182Z,4.30
2018-09-27T05:34:46.826Z,4.63
2018-09-27T05:37:15.796Z,4.13
2018-09-27T05:39:44.631Z,3.50
2018-09-27T05:42:13.400Z,4.13
2018-09-27T05:44:42.250Z,4.77
2018-09-27T05:47:11.890Z,3.80
2018-09-27T05:49:40.907Z,3.70
2018-09-27T05:52:09.742Z,3.70
2018-09-27T05:54:38.687Z,3.60
2018-09-27T05:57:07.596Z,4.37
2018-09-27T05:59:36.520Z,4.33
2018-09-27T06:02:05.564Z,3.90
2018-09-27T06:04:34.429Z,3.97
2018-09-27T06:07:03.258Z,4.33
2018-09-27T06:09:32.142Z,4.20
2018-09-27T06:12:01.024Z,3.93
2018-09-27T06:14:30.258Z,3.13
2018-09-27T06:16:59.113Z,4.50
2018-09-27T06:19:27.963Z,4.13
2018-09-27T06:21:56.748Z,4.60
2018-09-27T06:24:25.788Z,4.33
2018-09-27T06:26:54.621Z,4.17
2018-09-27T06:29:23.473Z,4.37
2018-09-27T06:31:52.241Z,3.97
2018-09-27T06:34:21.094Z,4.53
2018-09-27T06:36:49.896Z,4.23
2018-09-27T06:39:18.648Z,4.27
2018-09-27T06:41:47.563Z,4.00
2018-09-27T06:44:16.558Z,4.43
2018-09-27T06:46:45.648Z,4.23
2018-09-27T06:49:14.470Z,3.70
2018-09-27T06:51:43.500Z,4.07
2018-09-27T06:54:12.280Z,4.43
2018-09-27T06:56:41.351Z,4.33
2018-09-27T06:59:11.003Z,4.40
2018-09-27T07:01:40.063Z,4.20
2018-09-27T07:04:09.390Z,4.80
2018-09-27T07:06:38.351Z,4.10
2018-09-27T07:09:10.840Z,4.30
2018-09-27T07:11:40.242Z,5.33
2018-09-27T07:14:10.016Z,4.20
2018-09-27T07:16:39.277Z,4.83
2018-09-27T07:19:08.627Z,4.47
2018-09-27T07:21:37.507Z,4.43
2018-09-27T07:24:06.804Z,4.00
2018-09-27T07:26:35.848Z,4.43
2018-09-27T07:29:04.813Z,4.70
2018-09-27T07:31:33.848Z,3.93
2018-09-27T07:34:03.081Z,4.30
2018-09-27T07:36:32.154Z,4.07
2018-09-27T07:39:01.301Z,4.20
2018-09-27T07:41:30.428Z,3.87
2018-09-27T07:43:59.400Z,4.00
2018-09-27T07:46:28.364Z,3.50
2018-09-27T07:48:57.524Z,3.87
2018-09-27T07:51:26.405Z,3.97
2018-09-27T07:53:55.519Z,3.50
2018-09-27T07:56:24.736Z,3.80
2018-09-27T07:58:53.880Z,4.73
2018-09-27T08:01:23.162Z,3.70
2018-09-27T08:03:52.171Z,3.17
2018-09-27T08:06:21.247Z,3.80
2018-09-27T08:08:50.205Z,3.43
2018-09-27T08:11:19.488Z,3.27
2018-09-27T08:13:48.618Z,3.17
2018-09-27T08:16:17.591Z,3.00
2018-09-27T08:18:46.735Z,3.60
2018-09-27T08:21:16.063Z,3.73
2018-09-27T08:23:45.136Z,3.60
2018-09-27T08:26:14.017Z,3.50
2018-09-27T08:28:43.009Z,3.80
2018-09-27T08:31:12.173Z,3.30
2018-09-27T08:33:41.363Z,3.60
2018-09-27T08:36:10.509Z,3.40
2018-09-27T08:38:39.497Z,3.00
2018-09-27T08:41:08.609Z,3.53
2018-09-27T08:43:37.583Z,2.90
2018-09-27T08:46:06.720Z,3.00
2018-09-27T08:48:35.589Z,3.23
2018-09-27T08:51:04.572Z,3.23
2018-09-27T08:53:33.932Z,3.60
2018-09-27T08:56:03.482Z,3.20
2018-09-27T08:58:32.546Z,3.17
2018-09-27T09:01:01.572Z,2.87
2018-09-27T09:03:30.863Z,3.33
2018-09-27T09:06:00.093Z,3.03
2018-09-27T09:08:29.711Z,2.80
2018-09-27T09:10:58.713Z,3.13
2018-09-27T09:13:27.861Z,3.60
2018-09-27T09:15:56.765Z,3.30
2018-09-27T09:18:25.942Z,2.90
2018-09-27T09:20:56.000Z,3.20
2018-09-27T09:23:25.277Z,4.30
2018-09-27T09:25:54.343Z,3.80
2018-09-27T09:28:23.530Z,3.87
2018-09-27T09:30:52.469Z,3.60
2018-09-27T09:33:21.805Z,4.10
2018-09-27T09:35:51.028Z,3.93
2018-09-27T09:38:20.364Z,3.47
2018-09-27T09:40:49.702Z,3.33
2018-09-27T09:43:18.875Z,3.90
2018-09-27T09:45:48.093Z,3.43
2018-09-27T09:48:17.257Z,3.30
2018-09-27T09:50:46.335Z,3.70
2018-09-27T09:53:15.489Z,4.03
2018-09-27T09:55:44.361Z,3.60
2018-09-27T09:58:13.349Z,4.07
2018-09-27T10:00:42.305Z,4.60
2018-09-27T10:03:11.385Z,6.00
2018-09-27T10:05:41.648Z,5.43
2018-09-27T10:08:10.845Z,6.27
2018-09-27T10:10:40.051Z,5.83
2018-09-27T10:13:09.055Z,4.93
2018-09-27T10:15:37.958Z,4.97
2018-09-27T10:18:06.963Z,5.27
2018-09-27T10:20:35.944Z,4.60
2018-09-27T10:23:05.270Z,4.07
2018-09-27T10:25:34.133Z,4.27
2018-09-27T10:28:03.438Z,4.95
2018-09-27T10:30:32.553Z,4.87
2018-09-27T10:33:02.008Z,5.25
2018-09-27T10:35:31.536Z,5.03
2018-09-27T10:38:00.840Z,5.08
2018-09-27T10:40:29.760Z,5.00
2018-09-27T10:42:58.916Z,5.03
2018-09-27T10:45:28.172Z,5.35
2018-09-27T10:47:57.379Z,4.33
2018-09-27T10:50:26.235Z,4.85
2018-09-27T10:52:55.565Z,4.72
2018-09-27T10:55:24.864Z,5.80
2018-09-27T10:57:53.817Z,4.78
2018-09-27T11:00:23.883Z,5.03
2018-09-27T11:02:53.894Z,4.55
2018-09-27T11:05:22.866Z,4.35
2018-09-27T11:07:51.797Z,4.65
2018-09-27T11:10:21.121Z,4.62
2018-09-27T11:12:50.200Z,4.42
2018-09-27T11:15:19.203Z,4.28
2018-09-27T11:17:48.406Z,4.53
2018-09-27T11:20:17.706Z,4.45
2018-09-27T11:22:46.736Z,4.33
2018-09-27T11:25:16.045Z,4.33
2018-09-27T11:27:45.439Z,4.17
2018-09-27T11:32:54.234Z,3.83
2018-09-27T11:35:23.321Z,3.65
2018-09-27T11:37:52.440Z,3.92
2018-09-27T11:40:21.463Z,3.70
2018-09-27T11:42:50.590Z,3.42
2018-09-27T11:45:20.078Z,3.40
2018-09-27T11:47:49.261Z,3.37
2018-09-27T11:50:18.339Z,3.95
2018-09-27T11:52:47.236Z,3.33
2018-09-27T11:55:17.180Z,3.52
2018-09-27T11:57:46.356Z,3.42
2018-09-27T12:00:16.003Z,3.30
2018-09-27T12:02:44.996Z,3.12
2018-09-27T12:05:14.376Z,3.35
2018-09-27T12:07:43.650Z,3.62
2018-09-27T12:10:12.844Z,3.33
2018-09-27T12:12:42.230Z,3.27
2018-09-27T12:15:11.185Z,3.52
2018-09-27T12:17:40.209Z,3.35
2018-09-27T12:20:09.828Z,3.40
2018-09-27T12:22:38.828Z,3.17
2018-09-27T12:25:08.341Z,3.67
2018-09-27T12:27:37.343Z,3.40
2018-09-27T12:30:06.604Z,3.27
2018-09-27T12:32:36.485Z,3.70
2018-09-27T12:35:05.507Z,3.62
2018-09-27T12:37:34.393Z,3.50
2018-09-27T12:40:03.602Z,3.77
2018-09-27T12:42:32.486Z,3.80
2018-09-27T12:45:01.628Z,3.20
2018-09-27T12:47:30.484Z,3.15
2018-09-27T12:49:59.444Z,3.30
2018-09-27T12:52:28.599Z,3.27
2018-09-27T12:54:57.486Z,3.42
2018-09-27T12:57:26.879Z,3.52
2018-09-27T12:59:56.245Z,3.80
2018-09-27T13:02:25.218Z,3.40
2018-09-27T13:04:54.115Z,3.60
2018-09-27T13:07:23.125Z,3.52
2018-09-27T13:09:52.548Z,3.10
2018-09-27T13:12:21.710Z,3.70
2018-09-27T13:14:50.685Z,3.77
2018-09-27T13:17:19.908Z,3.87
2018-09-27T13:19:48.845Z,3.72
2018-09-27T13:22:18.166Z,3.92
2018-09-27T13:24:47.165Z,3.62
2018-09-27T13:27:16.437Z,4.00
2018-09-27T13:29:45.512Z,4.10
2018-09-27T13:32:15.302Z,3.90
2018-09-27T13:34:44.174Z,3.50
2018-09-27T13:37:13.499Z,4.83
2018-09-27T13:39:42.391Z,4.15
2018-09-27T13:42:11.194Z,3.90
2018-09-27T13:44:40.202Z,3.47
2018-09-27T13:47:09.293Z,3.58
2018-09-27T13:49:38.190Z,3.50
2018-09-27T13:52:07.600Z,4.05
2018-09-27T13:54:36.583Z,4.20
2018-09-27T13:57:05.551Z,4.42
2018-09-27T13:59:34.588Z,4.65
2018-09-27T14:02:03.469Z,3.92
2018-09-27T14:04:32.582Z,4.12
2018-09-27T14:07:01.539Z,4.03
2018-09-27T14:09:30.403Z,4.15
2018-09-27T14:11:59.346Z,4.40
2018-09-27T14:14:28.344Z,3.77
2018-09-27T14:16:57.384Z,3.83
2018-09-27T14:19:26.440Z,4.12
2018-09-27T14:21:55.666Z,3.75
2018-09-27T14:24:24.505Z,4.03
2018-09-27T14:26:53.462Z,3.62
2018-09-27T14:29:22.452Z,3.70
2018-09-27T14:31:51.476Z,3.60
2018-09-27T14:34:20.555Z,4.08
2018-09-27T14:36:49.607Z,3.92
2018-09-27T14:39:18.935Z,3.40
2018-09-27T14:41:47.902Z,4.10
2018-09-27T14:44:16.711Z,3.85
2018-09-27T14:46:45.554Z,4.47
2018-09-27T14:49:14.420Z,4.97
2018-09-27T14:51:43.428Z,4.25
2018-09-27T14:54:12.396Z,4.65
2018-09-27T14:56:41.296Z,3.22
2018-09-27T14:59:10.494Z,2.90
2018-09-27T15:01:45.917Z,4.45
2018-09-27T15:04:15.088Z,3.52
2018-09-27T15:06:44.234Z,2.72
2018-09-27T15:09:13.548Z,3.40
2018-09-27T15:11:42.756Z,3.33
2018-09-27T15:14:12.598Z,3.22
2018-09-27T15:16:41.445Z,2.72
2018-09-27T15:19:10.627Z,2.45
2018-09-27T15:21:39.781Z,2.52
2018-09-27T15:24:08.685Z,2.17
2018-09-27T15:26:37.965Z,2.42
2018-09-27T15:29:06.901Z,2.50
2018-09-27T15:31:38.523Z,2.40
2018-09-27T15:34:07.558Z,2.70
2018-09-27T15:36:36.624Z,2.85
2018-09-27T15:39:07.160Z,2.80
2018-09-27T15:41:36.026Z,2.58
2018-09-27T15:44:05.961Z,3.17
2018-09-27T15:46:34.840Z,2.80
2018-09-27T15:49:03.909Z,2.95
2018-09-27T15:51:33.013Z,3.20
2018-09-27T15:54:02.538Z,3.27
2018-09-27T15:56:31.455Z,3.25
2018-09-27T15:59:00.688Z,3.20
2018-09-27T16:01:31.608Z,3.65
2018-09-27T16:04:02.702Z,3.05
2018-09-27T16:06:33.772Z,3.58
2018-09-27T16:09:02.736Z,3.30
2018-09-27T16:11:31.674Z,2.62
2018-09-27T16:14:00.753Z,2.87
2018-09-27T16:16:29.852Z,3.40
2018-09-27T16:18:58.782Z,2.97
2018-09-27T16:21:27.677Z,2.92
2018-09-27T16:23:56.792Z,2.87
2018-09-27T16:26:25.722Z,2.77
2018-09-27T16:28:54.670Z,3.20
2018-09-27T16:31:23.652Z,3.70
2018-09-27T16:33:52.418Z,3.57
2018-09-27T16:36:21.278Z,3.20
2018-09-27T16:38:50.212Z,2.80
2018-09-27T16:41:19.082Z,2.50
2018-09-27T16:43:48.751Z,2.50
2018-09-27T16:46:17.788Z,2.33
2018-09-27T16:48:46.922Z,1.90
2018-09-27T16:51:15.755Z,2.03
2018-09-27T16:53:44.758Z,2.00
2018-09-27T16:56:13.674Z,2.10
2018-09-27T16:58:42.559Z,2.50
2018-09-27T17:01:11.754Z,1.83
2018-09-27T17:03:40.860Z,2.00
2018-09-27T17:06:10.211Z,2.00
2018-09-27T17:08:39.326Z,1.90
2018-09-27T17:11:10.472Z,2.03
2018-09-27T17:13:41.631Z,2.07
2018-09-27T17:16:11.814Z,2.10
2018-09-27T17:18:42.181Z,2.10
2018-09-27T17:21:12.468Z,2.53
2018-09-27T17:23:43.620Z,3.03
2018-09-27T17:26:14.279Z,2.77
2018-09-27T17:28:44.625Z,3.10
2018-09-27T17:31:14.967Z,3.30
2018-09-27T17:33:45.432Z,2.97
2018-09-27T17:36:16.350Z,2.80
2018-09-27T17:38:47.306Z,3.00
2018-09-27T17:41:16.999Z,3.00
2018-09-27T17:43:46.581Z,2.53
2018-09-27T17:46:16.114Z,2.73
2018-09-27T17:48:45.640Z,3.00
2018-09-27T17:51:14.990Z,3.00
2018-09-27T17:53:44.385Z,2.90
2018-09-27T17:56:13.750Z,2.87
2018-09-27T17:58:43.064Z,3.30
2018-09-27T18:01:12.388Z,3.43
2018-09-27T18:03:41.788Z,3.10
2018-09-27T18:06:11.101Z,2.80
2018-09-27T18:08:40.678Z,3.07
2018-09-27T18:11:10.237Z,2.70
2018-09-27T18:13:40.708Z,2.37
2018-09-27T18:16:10.290Z,2.73
2018-09-27T18:18:39.849Z,3.10
2018-09-27T18:21:09.287Z,2.70
2018-09-27T18:23:39.038Z,2.70
2018-09-27T18:26:09.750Z,2.80
2018-09-27T18:28:39.308Z,3.33
2018-09-27T18:31:08.736Z,3.17
2018-09-27T18:33:38.244Z,3.03
2018-09-27T18:36:07.999Z,3.60
2018-09-27T18:38:37.480Z,3.53
2018-09-27T18:41:07.015Z,4.03
2018-09-27T18:43:36.642Z,3.97
2018-09-27T18:46:06.289Z,3.77
2018-09-27T18:48:35.762Z,3.53
2018-09-27T18:51:05.159Z,3.37
2018-09-27T18:53:34.830Z,3.33
2018-09-27T18:56:04.300Z,3.43
2018-09-27T18:58:33.702Z,3.40
2018-09-27T19:01:03.095Z,3.57
2018-09-27T19:03:32.809Z,3.93
2018-09-27T19:06:02.187Z,3.30
2018-09-27T19:08:32.620Z,3.30
2018-09-27T19:11:02.051Z,3.50
2018-09-27T19:13:31.658Z,3.63
2018-09-27T19:16:01.000Z,3.70
2018-09-27T19:18:30.286Z,3.20
2018-09-27T19:20:59.568Z,3.27
2018-09-27T19:23:29.106Z,3.83
2018-09-27T19:25:59.346Z,3.47
2018-09-27T19:28:28.798Z,3.00
2018-09-27T19:30:58.406Z,3.20
2018-09-27T19:33:27.951Z,3.67
2018-09-27T19:35:57.407Z,3.83
2018-09-27T19:38:26.674Z,3.97
2018-09-27T19:40:56.037Z,3.47
2018-09-27T19:43:25.690Z,3.53
2018-09-27T19:45:55.039Z,4.40
2018-09-27T19:48:24.748Z,3.93
2018-09-27T19:50:54.015Z,3.87
2018-09-27T19:53:23.483Z,3.90
2018-09-27T19:55:52.879Z,3.97
2018-09-27T19:58:23.783Z,4.27
2018-09-27T20:00:53.479Z,3.57
2018-09-27T20:03:22.855Z,3.83
2018-09-27T20:05:53.386Z,3.20
2018-09-27T20:08:22.808Z,3.47
2018-09-27T20:10:52.145Z,3.50
2018-09-27T20:13:21.500Z,3.30
2018-09-27T20:15:51.024Z,3.53
2018-09-27T20:18:20.952Z,3.63
2018-09-27T20:20:50.388Z,3.73
2018-09-27T20:23:19.962Z,4.47
2018-09-27T20:25:50.418Z,3.73
2018-09-27T20:28:19.927Z,3.90
2018-09-27T20:30:49.123Z,3.67
2018-09-27T20:33:18.414Z,3.93
2018-09-27T20:35:47.769Z,3.50
2018-09-27T20:38:17.319Z,3.37
2018-09-27T20:40:46.746Z,3.07
2018-09-27T20:43:16.963Z,3.60
2018-09-27T20:45:46.431Z,3.40
2018-09-27T20:48:15.875Z,3.90
2018-09-27T20:50:45.184Z,4.53
2018-09-27T20:53:14.589Z,3.00
2018-09-27T20:55:44.018Z,3.93
2018-09-27T20:58:13.306Z,3.53
2018-09-27T21:00:42.580Z,3.47
2018-09-27T21:03:11.861Z,3.67
2018-09-27T21:05:41.197Z,4.03
2018-09-27T21:08:10.806Z,3.60
2018-09-27T21:10:40.189Z,4.17
2018-09-27T21:13:09.492Z,4.07
2018-09-27T21:15:38.653Z,3.53
2018-09-27T21:18:07.657Z,4.13
2018-09-27T21:20:36.385Z,4.20
2018-09-27T21:23:05.385Z,4.07
2018-09-27T21:25:34.166Z,4.07
2018-09-27T21:28:03.028Z,4.13
2018-09-27T21:30:31.777Z,4.23
2018-09-27T21:33:00.648Z,3.80
2018-09-27T21:35:29.483Z,3.67
2018-09-27T21:37:58.464Z,4.37
2018-09-27T21:40:27.240Z,3.50
2018-09-27T21:42:56.291Z,3.80
2018-09-27T21:45:25.222Z,4.20
2018-09-27T21:47:53.974Z,3.70
2018-09-27T21:50:22.924Z,4.33
2018-09-27T21:52:51.645Z,4.60
2018-09-27T21:55:20.433Z,4.47
2018-09-27T21:57:49.340Z,4.23
2018-09-27T22:00:18.376Z,4.20
2018-09-27T22:02:47.118Z,3.93
2018-09-27T22:05:15.948Z,4.17
2018-09-27T22:07:44.808Z,4.53
2018-09-27T22:10:13.804Z,4.33
2018-09-27T22:12:42.580Z,4.20
2018-09-27T22:15:11.545Z,4.50
2018-09-27T22:17:40.332Z,4.73
2018-09-27T22:20:09.160Z,4.70
2018-09-27T22:22:37.959Z,4.83
2018-09-27T22:25:06.805Z,4.23
2018-09-27T22:27:35.768Z,4.33
2018-09-27T22:30:04.869Z,4.00
2018-09-27T22:32:33.707Z,4.43
2018-09-27T22:35:02.554Z,4.80
2018-09-27T22:37:31.263Z,4.80
2018-09-27T22:40:00.091Z,4.77
2018-09-27T22:42:28.849Z,4.80
2018-09-27T22:44:57.632Z,4.40
2018-09-27T22:47:26.422Z,4.57
2018-09-27T22:49:55.202Z,4.70
2018-09-27T22:52:24.020Z,4.60
2018-09-27T22:54:52.924Z,4.23
2018-09-27T22:57:21.669Z,4.60
2018-09-27T22:59:50.478Z,4.60
2018-09-27T23:02:19.369Z,4.30
2018-09-27T23:04:48.094Z,5.27
2018-09-27T23:07:16.976Z,4.73
2018-09-27T23:09:45.755Z,5.00
2018-09-27T23:12:14.571Z,4.90
2018-09-27T23:14:43.286Z,5.20
2018-09-27T23:17:12.026Z,4.30
2018-09-27T23:19:41.034Z,5.43
2018-09-27T23:22:09.985Z,4.60
2018-09-27T23:24:38.782Z,4.70
2018-09-27T23:27:07.574Z,4.70
2018-09-27T23:29:36.435Z,4.43
2018-09-27T23:32:05.208Z,4.30
2018-09-27T23:34:33.961Z,5.00
2018-09-27T23:37:02.823Z,4.60
2018-09-27T23:39:31.593Z,4.83
2018-09-27T23:42:00.413Z,4.87
2018-09-27T23:44:29.187Z,5.30
2018-09-27T23:46:58.002Z,5.00
2018-09-27T23:49:27.712Z,4.87
2018-09-27T23:51:56.554Z,5.13
2018-09-27T23:54:25.309Z,4.60
2018-09-27T23:56:54.187Z,4.73
2018-09-27T23:59:23.057Z,4.80
